createdAt,value
2019-06-26T00:01:58.723Z,100742.52
2019-06-26T00:04:27.235Z,100744.70
2019-06-26T00:06:56.054Z,100750.71
2019-06-26T00:09:24.599Z,100742.37
2019-06-26T00:11:53.111Z,100743.22
2019-06-26T00:14:21.621Z,100742.64
2019-06-26T00:16:50.151Z,100741.84
2019-06-26T00:19:18.650Z,100753.09
2019-06-26T00:21:47.169Z,100752.19
2019-06-26T00:24:15.962Z,100749.31
2019-06-26T00:26:44.544Z,100750.27
2019-06-26T00:29:13.300Z,100747.38
2019-06-26T00:31:41.822Z,100761.30
2019-06-26T00:34:10.329Z,100766.72
2019-06-26T00:36:38.916Z,100765.53
2019-06-26T00:39:07.457Z,100763.83
2019-06-26T00:41:35.960Z,100769.58
2019-06-26T00:44:04.516Z,100772.22
2019-06-26T00:46:33.071Z,100771.59
2019-06-26T00:49:01.562Z,100777.84
2019-06-26T00:51:30.405Z,100778.39
2019-06-26T00:53:58.954Z,100785.52
2019-06-26T00:56:27.492Z,100792.58
2019-06-26T00:58:56.359Z,100778.62
2019-06-26T01:01:24.882Z,100771.87
2019-06-26T01:03:55.044Z,100785.22
2019-06-26T01:06:41.588Z,100782.60
2019-06-26T01:09:10.099Z,100777.81
2019-06-26T01:11:38.970Z,100782.30
2019-06-26T01:14:07.828Z,100776.63
2019-06-26T01:16:36.647Z,100767.46
2019-06-26T01:19:05.163Z,100765.55
2019-06-26T01:21:33.713Z,100767.89
2019-06-26T01:24:02.229Z,100768.77
2019-06-26T01:26:30.760Z,100765.73
2019-06-26T01:28:59.290Z,100773.47
2019-06-26T01:31:28.076Z,100773.95
2019-06-26T01:33:56.564Z,100769.74
2019-06-26T01:36:25.089Z,100764.55
2019-06-26T01:38:53.952Z,100764.67
2019-06-26T01:41:22.958Z,100767.03
2019-06-26T01:43:51.664Z,100766.74
2019-06-26T01:46:20.178Z,100771.44
2019-06-26T01:48:48.707Z,100772.81
2019-06-26T01:51:17.238Z,100768.47
2019-06-26T01:53:45.747Z,100771.45
2019-06-26T01:56:14.592Z,100768.95
2019-06-26T01:58:43.384Z,100769.92
2019-06-26T02:01:11.894Z,100774.14
2019-06-26T02:03:40.474Z,100773.74
2019-06-26T02:06:09.049Z,100772.13
2019-06-26T02:08:37.581Z,100773.69
2019-06-26T02:11:06.097Z,100778.91
2019-06-26T02:13:38.955Z,100778.38
2019-06-26T02:16:07.745Z,100780.81
2019-06-26T02:18:43.157Z,100779.70
2019-06-26T02:21:11.969Z,100780.08
2019-06-26T02:23:40.484Z,100777.58
2019-06-26T02:26:09.089Z,100778.47
2019-06-26T02:28:37.618Z,100778.00
2019-06-26T02:31:06.117Z,100781.80
2019-06-26T02:33:34.653Z,100774.66
2019-06-26T02:36:03.302Z,100782.43
2019-06-26T02:38:31.812Z,100776.95
2019-06-26T02:41:02.336Z,100788.11
2019-06-26T02:43:30.578Z,100781.62
2019-06-26T02:45:59.116Z,100783.95
2019-06-26T02:48:27.984Z,100778.23
2019-06-26T02:50:56.508Z,100781.92
2019-06-26T02:53:25.021Z,100787.94
2019-06-26T02:55:53.785Z,100782.46
2019-06-26T02:58:22.540Z,100783.30
2019-06-26T03:00:51.028Z,100778.36
2019-06-26T03:03:19.843Z,100786.33
2019-06-26T03:05:48.393Z,100785.20
2019-06-26T03:08:16.917Z,100781.09
2019-06-26T03:10:45.440Z,100789.39
2019-06-26T03:13:14.934Z,100790.70
2019-06-26T03:15:43.470Z,100796.86
2019-06-26T03:18:11.980Z,100790.99
2019-06-26T03:20:44.555Z,100798.78
2019-06-26T03:23:13.059Z,100797.48
2019-06-26T03:25:41.572Z,100800.09
2019-06-26T03:28:10.080Z,100801.06
2019-06-26T03:30:39.211Z,100804.59
2019-06-26T03:33:07.716Z,100802.78
2019-06-26T03:35:36.228Z,100803.31
2019-06-26T03:38:05.312Z,100803.52
2019-06-26T03:40:34.148Z,100811.13
2019-06-26T03:43:02.667Z,100811.59
2019-06-26T03:45:31.183Z,100806.95
2019-06-26T03:47:59.719Z,100811.18
2019-06-26T03:50:28.249Z,100819.39
2019-06-26T03:52:56.760Z,100819.94
2019-06-26T03:55:25.280Z,100817.17
2019-06-26T03:57:53.783Z,100813.22
2019-06-26T04:00:41.262Z,100823.64
2019-06-26T04:03:09.767Z,100823.36
2019-06-26T04:05:38.283Z,100820.53
2019-06-26T04:08:06.776Z,100816.34
2019-06-26T04:10:35.381Z,100824.38
2019-06-26T04:13:04.505Z,100826.17
2019-06-26T04:15:41.932Z,100832.01
2019-06-26T04:18:03.483Z,100826.81
2019-06-26T04:20:31.999Z,100838.61
2019-06-26T04:23:00.504Z,100845.86
2019-06-26T04:25:29.081Z,100842.88
2019-06-26T04:27:57.581Z,100851.09
2019-06-26T04:30:26.086Z,100848.49
2019-06-26T04:32:54.587Z,100850.87
2019-06-26T04:35:23.093Z,100852.58
2019-06-26T04:37:51.597Z,100855.77
2019-06-26T04:40:20.624Z,100856.14
2019-06-26T04:42:49.559Z,100859.19
2019-06-26T04:45:18.434Z,100863.61
2019-06-26T04:47:47.431Z,100862.70
2019-06-26T04:50:16.011Z,100864.59
2019-06-26T04:52:44.540Z,100861.61
2019-06-26T04:55:13.467Z,100862.29
2019-06-26T04:57:42.081Z,100869.34
2019-06-26T05:00:11.469Z,100863.87
2019-06-26T05:02:40.023Z,100863.20
2019-06-26T05:05:08.614Z,100866.14
2019-06-26T05:07:37.156Z,100863.94
2019-06-26T05:10:06.433Z,100868.22
2019-06-26T05:12:34.949Z,100862.23
2019-06-26T05:15:03.772Z,100865.86
2019-06-26T05:17:32.618Z,100865.69
2019-06-26T05:20:01.135Z,100869.81
2019-06-26T05:22:29.755Z,100872.33
2019-06-26T05:24:58.298Z,100870.53
2019-06-26T05:27:26.823Z,100872.47
2019-06-26T05:29:55.330Z,100882.45
2019-06-26T05:32:23.852Z,100884.98
2019-06-26T05:34:52.754Z,100884.25
2019-06-26T05:37:21.295Z,100887.86
2019-06-26T05:39:49.813Z,100890.66
2019-06-26T05:42:18.325Z,100895.25
2019-06-26T05:44:46.833Z,100896.55
2019-06-26T05:47:15.656Z,100902.67
2019-06-26T05:49:44.397Z,100900.23
2019-06-26T05:52:16.502Z,100906.54
2019-06-26T05:54:43.367Z,100893.20
2019-06-26T05:57:12.128Z,100901.67
2019-06-26T05:59:40.631Z,100902.91
2019-06-26T06:02:09.584Z,100901.73
2019-06-26T06:04:38.073Z,100907.36
2019-06-26T06:07:06.632Z,100911.13
2019-06-26T06:09:35.173Z,100905.69
2019-06-26T06:12:04.042Z,100911.22
2019-06-26T06:14:32.810Z,100909.36
2019-06-26T06:17:01.324Z,100912.94
2019-06-26T06:19:29.836Z,100914.34
2019-06-26T06:21:58.396Z,100917.93
2019-06-26T06:24:26.913Z,100919.08
2019-06-26T06:26:55.746Z,100925.21
2019-06-26T06:29:24.242Z,100921.75
2019-06-26T06:31:52.749Z,100928.69
2019-06-26T06:34:21.319Z,100926.83
2019-06-26T06:36:50.210Z,100937.05
2019-06-26T06:39:18.765Z,100938.16
2019-06-26T06:41:47.539Z,100943.18
2019-06-26T06:44:16.092Z,100940.64
2019-06-26T06:46:44.622Z,100942.28
2019-06-26T06:49:13.133Z,100943.41
2019-06-26T06:51:41.722Z,100947.86
2019-06-26T06:54:10.494Z,100949.50
2019-06-26T06:56:38.999Z,100952.27
2019-06-26T06:59:07.570Z,100953.64
2019-06-26T07:01:36.077Z,100949.17
2019-06-26T07:04:04.912Z,100947.43
2019-06-26T07:06:33.796Z,100952.97
2019-06-26T07:09:02.266Z,100955.71
2019-06-26T07:11:30.774Z,100954.30
2019-06-26T07:13:59.580Z,100957.92
2019-06-26T07:16:28.086Z,100961.41
2019-06-26T07:18:56.642Z,100968.59
2019-06-26T07:21:25.449Z,100962.73
2019-06-26T07:23:53.979Z,100964.95
2019-06-26T07:26:22.508Z,100960.88
2019-06-26T07:28:51.374Z,100969.07
2019-06-26T07:31:19.904Z,100968.81
2019-06-26T07:33:48.671Z,100972.27
2019-06-26T07:36:17.171Z,100974.04
2019-06-26T07:38:45.942Z,100981.84
2019-06-26T07:41:14.841Z,100975.17
2019-06-26T07:43:43.398Z,100986.36
2019-06-26T07:46:11.908Z,100986.80
2019-06-26T07:48:40.419Z,100990.42
2019-06-26T07:51:08.948Z,100983.97
2019-06-26T07:53:37.467Z,100986.57
2019-06-26T07:56:05.990Z,100992.32
2019-06-26T07:58:34.545Z,100990.06
2019-06-26T08:01:05.870Z,100987.94
2019-06-26T08:03:34.461Z,100992.05
2019-06-26T08:06:03.028Z,100993.05
2019-06-26T08:08:31.540Z,100998.36
2019-06-26T08:11:00.085Z,101001.92
2019-06-26T08:13:28.599Z,101004.96
2019-06-26T08:15:57.480Z,101000.64
2019-06-26T08:18:26.341Z,101002.27
2019-06-26T08:21:10.878Z,101003.57
2019-06-26T08:23:25.394Z,101006.42
2019-06-26T08:25:54.294Z,100994.04
2019-06-26T08:28:23.154Z,101000.75
2019-06-26T08:30:51.763Z,100996.63
2019-06-26T08:33:20.536Z,100998.61
2019-06-26T08:35:49.110Z,101002.19
2019-06-26T08:38:17.610Z,101002.63
2019-06-26T08:40:46.187Z,101001.36
2019-06-26T08:43:14.661Z,100992.72
2019-06-26T08:45:43.450Z,100991.19
2019-06-26T08:48:22.998Z,100991.92
2019-06-26T08:50:42.554Z,100996.23
2019-06-26T08:53:11.124Z,100993.41
2019-06-26T08:55:39.630Z,100987.34
2019-06-26T08:58:08.173Z,100976.95
2019-06-26T09:00:37.013Z,100989.96
2019-06-26T09:03:05.882Z,100988.55
2019-06-26T09:05:47.417Z,100984.64
2019-06-26T09:08:05.007Z,100984.81
2019-06-26T09:10:33.534Z,100981.30
2019-06-26T09:13:02.052Z,100989.70
2019-06-26T09:15:30.883Z,100983.39
2019-06-26T09:17:59.346Z,100984.50
2019-06-26T09:20:35.292Z,100983.38
2019-06-26T09:23:03.825Z,100986.67
2019-06-26T09:25:32.346Z,100985.83
2019-06-26T09:28:01.425Z,100980.75
2019-06-26T09:30:29.982Z,100981.53
2019-06-26T09:32:58.501Z,100987.09
2019-06-26T09:35:27.095Z,100985.59
2019-06-26T09:37:55.933Z,100986.50
2019-06-26T09:40:24.449Z,100991.31
2019-06-26T09:42:52.964Z,100988.32
2019-06-26T09:45:21.491Z,100983.95
2019-06-26T09:47:49.997Z,100984.61
2019-06-26T09:50:18.509Z,100991.13
2019-06-26T09:52:47.325Z,100990.29
2019-06-26T09:55:16.115Z,100997.83
2019-06-26T09:57:44.638Z,101006.78
2019-06-26T10:00:13.407Z,101004.41
2019-06-26T10:02:41.939Z,101008.55
2019-06-26T10:05:10.463Z,101000.41
2019-06-26T10:07:39.000Z,101000.01
2019-06-26T10:10:08.208Z,101000.31
2019-06-26T10:12:36.742Z,100998.03
2019-06-26T10:15:05.659Z,100999.83
2019-06-26T10:17:34.231Z,100997.89
2019-06-26T10:20:02.784Z,101002.23
2019-06-26T10:22:31.342Z,101005.70
2019-06-26T10:25:00.794Z,101002.11
2019-06-26T10:27:29.433Z,101000.33
2019-06-26T10:29:58.078Z,101000.61
2019-06-26T10:32:26.574Z,100994.77
2019-06-26T10:34:55.381Z,100997.20
2019-06-26T10:37:23.905Z,100993.87
2019-06-26T10:39:52.432Z,101008.77
2019-06-26T10:42:20.951Z,101001.48
2019-06-26T10:44:49.736Z,100998.92
2019-06-26T10:47:18.637Z,100991.38
2019-06-26T10:49:47.166Z,100999.22
2019-06-26T10:52:15.704Z,100992.27
2019-06-26T10:54:44.769Z,100993.25
2019-06-26T10:57:13.751Z,100991.83
2019-06-26T10:59:42.284Z,100983.09
2019-06-26T11:02:10.810Z,100975.92
2019-06-26T11:04:39.341Z,100968.99
2019-06-26T11:07:07.865Z,100965.84
2019-06-26T11:09:36.412Z,100966.63
2019-06-26T11:12:04.941Z,100959.36
2019-06-26T11:14:33.517Z,100954.27
2019-06-26T11:17:02.338Z,100960.96
2019-06-26T11:19:43.456Z,100952.39
2019-06-26T11:22:03.564Z,100947.16
2019-06-26T11:24:32.060Z,100941.24
2019-06-26T11:27:01.666Z,100940.33
2019-06-26T11:29:30.204Z,100946.86
2019-06-26T11:31:58.720Z,100947.17
2019-06-26T11:34:27.235Z,100948.03
2019-06-26T11:37:03.814Z,100946.80
2019-06-26T11:39:26.032Z,100952.71
2019-06-26T11:41:54.872Z,100951.21
2019-06-26T11:44:23.466Z,100951.02
2019-06-26T11:46:51.925Z,100946.11
2019-06-26T11:49:20.981Z,100943.53
2019-06-26T11:51:49.507Z,100939.73
2019-06-26T11:54:18.304Z,100952.04
2019-06-26T11:56:47.242Z,100943.28
2019-06-26T11:59:15.803Z,100955.08
2019-06-26T12:01:44.876Z,100950.22
2019-06-26T12:04:13.403Z,100946.36
2019-06-26T12:06:45.675Z,100943.28
2019-06-26T12:09:12.153Z,100946.72
2019-06-26T12:11:40.776Z,100940.75
2019-06-26T12:14:09.326Z,100943.42
2019-06-26T12:16:38.420Z,100948.70
2019-06-26T12:19:06.978Z,100943.97
2019-06-26T12:21:35.533Z,100940.16
2019-06-26T12:24:04.129Z,100942.53
2019-06-26T12:26:32.656Z,100932.70
2019-06-26T12:29:01.468Z,100934.86
2019-06-26T12:31:29.975Z,100936.39
2019-06-26T12:33:58.516Z,100928.31
2019-06-26T12:36:27.024Z,100933.02
2019-06-26T12:38:55.563Z,100924.70
2019-06-26T12:41:24.366Z,100922.77
2019-06-26T12:43:52.895Z,100917.32
2019-06-26T12:46:21.410Z,100915.99
2019-06-26T12:48:49.955Z,100923.62
2019-06-26T12:51:18.474Z,100918.78
2019-06-26T12:53:47.030Z,100910.86
2019-06-26T12:56:15.571Z,100909.55
2019-06-26T12:58:44.118Z,100906.97
2019-06-26T13:01:12.672Z,100903.09
2019-06-26T13:03:41.626Z,100906.17
2019-06-26T13:06:10.153Z,100900.69
2019-06-26T13:08:38.951Z,100893.22
2019-06-26T13:11:07.661Z,100886.22
2019-06-26T13:13:36.496Z,100885.57
2019-06-26T13:16:05.141Z,100890.59
2019-06-26T13:18:33.666Z,100874.54
2019-06-26T13:21:05.274Z,100882.39
2019-06-26T13:23:33.365Z,100871.81
2019-06-26T13:26:01.973Z,100878.58
2019-06-26T13:28:30.473Z,100868.49
2019-06-26T13:30:59.269Z,100868.75
2019-06-26T13:33:27.777Z,100877.33
2019-06-26T13:35:56.299Z,100880.66
2019-06-26T13:38:27.103Z,100877.17
2019-06-26T13:40:55.851Z,100874.34
2019-06-26T13:43:24.377Z,100876.41
2019-06-26T13:45:52.897Z,100872.94
2019-06-26T13:48:21.409Z,100875.41
2019-06-26T13:50:50.115Z,100872.14
2019-06-26T13:53:18.969Z,100870.51
2019-06-26T13:55:47.502Z,100863.77
2019-06-26T13:58:16.049Z,100872.16
2019-06-26T14:00:44.567Z,100861.68
2019-06-26T14:03:13.398Z,100865.52
2019-06-26T14:05:42.177Z,100865.77
2019-06-26T14:08:10.691Z,100873.27
2019-06-26T14:10:39.208Z,100858.55
2019-06-26T14:13:07.720Z,100872.17
2019-06-26T14:15:36.997Z,100863.92
2019-06-26T14:18:05.549Z,100860.81
2019-06-26T14:20:34.416Z,100856.92
2019-06-26T14:23:02.924Z,100863.27
2019-06-26T14:25:31.809Z,100861.91
2019-06-26T14:28:00.352Z,100857.30
2019-06-26T14:30:29.379Z,100858.50
2019-06-26T14:32:57.907Z,100857.83
2019-06-26T14:35:26.667Z,100850.37
2019-06-26T14:37:55.212Z,100841.84
2019-06-26T14:40:23.718Z,100842.95
2019-06-26T14:42:52.236Z,100843.02
2019-06-26T14:45:20.773Z,100833.77
2019-06-26T14:47:49.662Z,100839.00
2019-06-26T14:50:18.292Z,100834.25
2019-06-26T14:52:46.813Z,100835.28
2019-06-26T14:55:15.347Z,100838.09
2019-06-26T14:57:43.861Z,100843.66
2019-06-26T15:00:12.608Z,100839.82
2019-06-26T15:02:41.081Z,100835.92
2019-06-26T15:05:09.688Z,100838.35
2019-06-26T15:07:38.193Z,100842.34
2019-06-26T15:10:06.926Z,100844.60
2019-06-26T15:12:35.702Z,100841.58
2019-06-26T15:15:04.264Z,100841.20
2019-06-26T15:17:32.803Z,100841.86
2019-06-26T15:20:01.524Z,100836.98
2019-06-26T15:22:30.105Z,100833.27
2019-06-26T15:24:58.644Z,100829.72
2019-06-26T15:27:27.161Z,100826.21
2019-06-26T15:29:55.699Z,100827.26
2019-06-26T15:32:24.219Z,100827.89
2019-06-26T15:34:52.796Z,100827.27
2019-06-26T15:37:21.335Z,100818.11
2019-06-26T15:39:50.154Z,100817.10
2019-06-26T15:42:18.665Z,100815.52
2019-06-26T15:44:47.182Z,100810.61
2019-06-26T15:47:16.640Z,100810.37
2019-06-26T15:49:45.190Z,100812.16
2019-06-26T15:52:15.437Z,100812.67
2019-06-26T15:54:44.442Z,100813.52
2019-06-26T15:57:13.150Z,100806.06
2019-06-26T15:59:41.686Z,100807.13
2019-06-26T16:02:10.514Z,100814.64
2019-06-26T16:04:39.084Z,100798.78
2019-06-26T16:07:07.631Z,100795.53
2019-06-26T16:09:36.164Z,100797.99
2019-06-26T16:12:05.032Z,100795.48
2019-06-26T16:14:33.568Z,100789.33
2019-06-26T16:17:06.764Z,100790.95
2019-06-26T16:19:35.276Z,100786.90
2019-06-26T16:22:03.794Z,100775.67
2019-06-26T16:24:32.385Z,100779.88
2019-06-26T16:27:00.921Z,100775.97
2019-06-26T16:29:29.762Z,100778.34
2019-06-26T16:31:58.638Z,100782.31
2019-06-26T16:34:27.419Z,100781.49
2019-06-26T16:36:56.209Z,100779.37
2019-06-26T16:39:25.094Z,100787.94
2019-06-26T16:41:53.641Z,100776.33
2019-06-26T16:44:22.184Z,100771.11
2019-06-26T16:46:50.703Z,100765.77
2019-06-26T16:49:19.271Z,100772.45
2019-06-26T16:51:47.790Z,100767.27
2019-06-26T16:54:16.345Z,100771.11
2019-06-26T16:56:44.884Z,100771.56
2019-06-26T16:59:13.428Z,100773.44
2019-06-26T17:01:41.942Z,100771.52
2019-06-26T17:04:10.556Z,100777.05
2019-06-26T17:06:39.513Z,100772.05
2019-06-26T17:09:09.158Z,100772.30
2019-06-26T17:11:37.844Z,100771.38
2019-06-26T17:14:06.406Z,100775.13
2019-06-26T17:16:35.003Z,100781.98
2019-06-26T17:19:03.532Z,100782.23
2019-06-26T17:21:32.077Z,100780.35
2019-06-26T17:24:00.921Z,100782.53
2019-06-26T17:26:29.469Z,100789.52
2019-06-26T17:28:58.328Z,100791.28
2019-06-26T17:31:26.995Z,100775.31
2019-06-26T17:33:55.531Z,100784.36
2019-06-26T17:36:24.082Z,100786.17
2019-06-26T17:38:52.599Z,100785.73
2019-06-26T17:41:21.145Z,100790.91
2019-06-26T17:43:49.992Z,100781.49
2019-06-26T17:46:18.536Z,100783.89
2019-06-26T17:48:47.085Z,100787.13
2019-06-26T17:51:15.645Z,100781.33
2019-06-26T17:53:44.171Z,100779.44
2019-06-26T17:56:12.740Z,100779.38
2019-06-26T17:58:41.602Z,100778.84
2019-06-26T18:01:10.436Z,100781.25
2019-06-26T18:03:38.998Z,100778.27
2019-06-26T18:06:07.910Z,100780.54
2019-06-26T18:08:36.515Z,100782.45
2019-06-26T18:11:05.047Z,100781.56
2019-06-26T18:13:33.579Z,100779.48
2019-06-26T18:16:02.133Z,100786.40
2019-06-26T18:18:30.918Z,100785.36
2019-06-26T18:20:59.449Z,100794.13
2019-06-26T18:23:37.165Z,100791.72
2019-06-26T18:26:11.932Z,100794.20
2019-06-26T18:28:29.024Z,100789.69
2019-06-26T18:30:57.575Z,100790.46
2019-06-26T18:33:26.165Z,100793.48
2019-06-26T18:35:54.672Z,100790.25
2019-06-26T18:38:23.191Z,100798.41
2019-06-26T18:40:51.725Z,100794.36
2019-06-26T18:43:20.248Z,100798.78
2019-06-26T18:45:48.792Z,100806.47
2019-06-26T18:48:17.321Z,100804.74
2019-06-26T18:50:45.849Z,100805.91
2019-06-26T18:53:14.423Z,100799.45
2019-06-26T18:55:42.955Z,100807.48
2019-06-26T18:58:11.823Z,100799.02
2019-06-26T19:00:40.475Z,100799.77
2019-06-26T19:03:09.089Z,100802.79
2019-06-26T19:05:37.596Z,100804.73
2019-06-26T19:08:06.420Z,100805.30
2019-06-26T19:10:35.255Z,100804.48
2019-06-26T19:13:03.781Z,100808.67
2019-06-26T19:15:32.559Z,100809.30
2019-06-26T19:18:01.080Z,100811.69
2019-06-26T19:20:29.639Z,100810.95
2019-06-26T19:22:58.512Z,100809.77
2019-06-26T19:25:27.068Z,100809.59
2019-06-26T19:27:55.569Z,100810.57
2019-06-26T19:30:24.079Z,100816.27
2019-06-26T19:32:52.606Z,100819.05
2019-06-26T19:35:21.163Z,100816.05
2019-06-26T19:37:49.705Z,100824.27
2019-06-26T19:40:18.223Z,100825.92
2019-06-26T19:42:46.790Z,100823.40
2019-06-26T19:45:15.382Z,100828.67
2019-06-26T19:47:43.871Z,100833.71
2019-06-26T19:50:12.425Z,100837.55
2019-06-26T19:52:41.027Z,100839.02
2019-06-26T19:55:10.417Z,100837.39
2019-06-26T19:57:38.966Z,100846.84
2019-06-26T20:00:08.294Z,100848.98
2019-06-26T20:02:36.789Z,100851.77
2019-06-26T20:05:05.488Z,100847.11
2019-06-26T20:07:34.049Z,100850.70
2019-06-26T20:10:02.910Z,100848.52
2019-06-26T20:12:31.730Z,100847.41
2019-06-26T20:15:00.265Z,100854.89
2019-06-26T20:17:28.802Z,100846.61
2019-06-26T20:19:57.323Z,100860.67
2019-06-26T20:22:26.164Z,100863.13
2019-06-26T20:24:57.312Z,100857.59
2019-06-26T20:27:25.001Z,100855.91
2019-06-26T20:29:53.534Z,100855.94
2019-06-26T20:32:22.347Z,100855.39
2019-06-26T20:34:50.895Z,100853.08
2019-06-26T20:37:19.448Z,100851.66
2019-06-26T20:39:48.019Z,100852.20
2019-06-26T20:42:16.529Z,100862.97
2019-06-26T20:44:45.084Z,100865.50
2019-06-26T20:47:13.583Z,100865.58
2019-06-26T20:49:52.535Z,100867.89
2019-06-26T20:52:12.383Z,100860.05
2019-06-26T20:54:41.214Z,100871.36
2019-06-26T20:57:09.917Z,100859.36
2019-06-26T20:59:38.458Z,100859.41
2019-06-26T21:02:07.022Z,100855.22
2019-06-26T21:04:35.561Z,100862.45
2019-06-26T21:07:04.073Z,100870.97
2019-06-26T21:09:32.628Z,100866.64
2019-06-26T21:12:01.186Z,100867.97
2019-06-26T21:14:30.327Z,100875.63
2019-06-26T21:16:58.840Z,100874.04
2019-06-26T21:19:27.425Z,100885.46
2019-06-26T21:21:55.950Z,100876.96
2019-06-26T21:24:24.635Z,100880.13
2019-06-26T21:26:53.201Z,100876.03
2019-06-26T21:29:21.722Z,100885.63
2019-06-26T21:31:50.230Z,100887.01
2019-06-26T21:34:18.757Z,100874.33
2019-06-26T21:36:47.320Z,100883.59
2019-06-26T21:39:15.840Z,100876.97
2019-06-26T21:41:44.651Z,100876.77
2019-06-26T21:44:13.193Z,100884.78
2019-06-26T21:46:41.727Z,100884.44
2019-06-26T21:49:10.328Z,100885.92
2019-06-26T21:51:39.053Z,100891.00
2019-06-26T21:54:07.861Z,100895.51
2019-06-26T21:56:36.621Z,100906.31
2019-06-26T21:59:05.135Z,100917.88
2019-06-26T22:01:33.695Z,100931.50
2019-06-26T22:04:03.475Z,100926.84
2019-06-26T22:06:32.036Z,100944.52
2019-06-26T22:09:00.631Z,100944.92
2019-06-26T22:11:29.175Z,100948.28
2019-06-26T22:13:57.706Z,100941.28
2019-06-26T22:16:26.233Z,100955.52
2019-06-26T22:18:54.761Z,100954.97
2019-06-26T22:21:23.633Z,100952.41
2019-06-26T22:23:52.167Z,100950.16
2019-06-26T22:26:20.686Z,100952.98
2019-06-26T22:28:49.182Z,100958.44
2019-06-26T22:31:17.974Z,100965.19
2019-06-26T22:33:46.530Z,100960.71
2019-06-26T22:36:15.054Z,100971.51
2019-06-26T22:38:43.828Z,100972.19
2019-06-26T22:41:12.334Z,100971.92
2019-06-26T22:43:40.881Z,100978.81
2019-06-26T22:46:09.765Z,100984.50
2019-06-26T22:48:38.268Z,100983.75
2019-06-26T22:51:07.045Z,100983.20
2019-06-26T22:53:35.558Z,100985.20
2019-06-26T22:56:08.041Z,100982.27
2019-06-26T22:58:34.440Z,100983.55
2019-06-26T23:01:02.979Z,100985.03
2019-06-26T23:03:31.624Z,100988.38
2019-06-26T23:06:00.220Z,100988.88
2019-06-26T23:08:28.773Z,100988.20
2019-06-26T23:10:57.381Z,100991.99
2019-06-26T23:13:25.877Z,100995.09
2019-06-26T23:15:54.409Z,100997.92
2019-06-26T23:18:22.933Z,100996.57
2019-06-26T23:20:51.472Z,100996.57
2019-06-26T23:23:19.977Z,101000.33
2019-06-26T23:25:48.508Z,101005.36
2019-06-26T23:28:17.325Z,101000.36
2019-06-26T23:30:45.849Z,101006.13
2019-06-26T23:33:14.371Z,101003.87
2019-06-26T23:35:42.938Z,101004.91
2019-06-26T23:38:11.473Z,101001.98
2019-06-26T23:40:40.363Z,101005.64
2019-06-26T23:43:08.903Z,101004.91
2019-06-26T23:45:37.742Z,101011.50
2019-06-26T23:48:06.530Z,101001.58
2019-06-26T23:50:35.072Z,101008.08
2019-06-26T23:53:03.894Z,101010.09
2019-06-26T23:55:32.610Z,101014.61
2019-06-26T23:58:01.127Z,101013.13
